KORSKHQM

Guest
Details From KORS - Orcas Island
To KHQM - Bowerman
Flight Number -
Tags Generated
Created
Modified
Stats Distance 113 nm / 209 km
Max Altitude 0 ft / 0 m
Waypoints 2
Social Downloads 1
Likes 0
Share VATSIM

Download

Looking for another format? Having issues loading an existing format? Contact us
Advertisement - Login to hide

Notes

Generated

Route

KORS KHQM

ID Type Via Altitude Latitude Longitude Leg Dist Tot Dist Heading (true) Name
O KORS APT - 0 ft / 0 m 48.71228˚ -122.91058˚ - 0 nm - Orcas Island
O KHQM APT - 0 ft / 0 m 46.96999˚ -123.94642˚ 112 nm 112 nm 202° / 201° -

Altitude Profile

Advertisement - Login to hide

KORS

Details ICAO KORS (ESD)
Name Orcas Island
Region United States
Timezone America/Los_Angeles (UTC-8.0)
Stats Elevation 25 ft / 8 m (AMSL)
Location 48.708318° -122.910606°
Runways 1
Magnetic Variation 16.097° E

METAR

KORS 170635Z AUTO 17008KT 5SM -RA FEW014 BKN037 OVC043 07/06 A3021 RMK AO2

Decode

TAF

Not found

Departure Runways

ID Width Length Bearing (true) Bearing (mag) Surface Threshold Offset Overrun Length
16 59 ft / 18 m 2,895 ft / 882 m 180.23° 164.13° Asphalt 0 ft / 0 m 240 ft / 73 m
34 59 ft / 18 m 2,895 ft / 882 m 0.23° 344.13° Asphalt 0 ft / 0 m 259 ft / 79 m

KHQM

Details ICAO KHQM
Name BOWERMAN
Region United States
Timezone America/Los_Angeles (UTC-8.0)
Stats Elevation 18 ft / 5 m (AMSL)
Location 46.971196° -123.936564°
Runways 1
Magnetic Variation 15.840° E

METAR

KHQM 170553Z AUTO 11003KT 9SM BKN008 BKN012 OVC033 07/07 A3026 RMK AO2 RAE52 SLP249 P0004 60009 T00720067 10078 20067 58006

Decode

TAF

KHQM 170523Z 1706/1806 10005KT 6SM -RA BR BKN025 OVC040 FM170900 13008KT 4SM -RA BR OVC012 FM171800 17013G25KT 4SM -RA BR OVC012

Decode

Destination Runways

ID Width Length Bearing (true) Bearing (mag) Surface Threshold Offset Overrun Length
06 151 ft / 46 m 4,987 ft / 1,520 m 79.79° 63.95° Asphalt 0 ft / 0 m 0 ft / 0 m
24 151 ft / 46 m 4,987 ft / 1,520 m 259.81° 243.97° Asphalt 0 ft / 0 m 0 ft / 0 m

Approach Navaids

Runway Type Ident Frequency Range Bearing (true) Bearing (mag) Slope Elevation
24 Localiser IHQM 108.70 MHz 18 nm / 33 km 259.79° 243.95° - 18 ft / 5 m (AMSL)
24 Glidescope IHQM 108.70 MHz 10 nm / 19 km 259.80° 243.96° 3.00° 18 ft / 5 m (AMSL)
24 DME IHQM 108.70 MHz 18 nm / 33 km - - - 18 ft / 5 m (AMSL)

Popular Alternatives